createdAt,value
2018-06-15T00:00:54.683Z,3.83
2018-06-15T00:03:22.874Z,4.40
2018-06-15T00:05:51.070Z,4.20
2018-06-15T00:08:19.267Z,3.80
2018-06-15T00:10:47.459Z,4.37
2018-06-15T00:13:15.655Z,4.23
2018-06-15T00:15:43.830Z,4.00
2018-06-15T00:18:12.064Z,4.40
2018-06-15T00:20:40.259Z,4.33
2018-06-15T00:23:08.451Z,4.63
2018-06-15T00:25:36.628Z,4.13
2018-06-15T00:28:04.942Z,4.63
2018-06-15T00:30:33.125Z,4.60
2018-06-15T00:33:01.074Z,4.33
2018-06-15T00:35:29.254Z,3.50
2018-06-15T00:37:57.189Z,4.27
2018-06-15T00:40:25.388Z,3.47
2018-06-15T00:42:54.179Z,4.03
2018-06-15T00:45:22.134Z,4.70
2018-06-15T00:47:50.316Z,3.87
2018-06-15T00:50:18.500Z,3.43
2018-06-15T00:52:46.704Z,3.63
2018-06-15T00:55:14.890Z,3.90
2018-06-15T00:57:46.308Z,3.30
2018-06-15T01:00:14.612Z,4.37
2018-06-15T01:02:42.944Z,4.40
2018-06-15T01:05:11.131Z,4.80
2018-06-15T01:07:39.354Z,4.93
2018-06-15T01:10:07.531Z,4.80
2018-06-15T01:12:35.706Z,3.93
2018-06-15T01:15:03.895Z,3.13
2018-06-15T01:17:32.125Z,4.10
2018-06-15T01:20:00.721Z,3.63
2018-06-15T01:22:28.900Z,3.80
2018-06-15T01:24:57.075Z,4.00
2018-06-15T01:27:25.470Z,4.43
2018-06-15T01:29:53.679Z,3.63
2018-06-15T01:32:21.626Z,3.80
2018-06-15T01:34:49.819Z,3.90
2018-06-15T01:37:17.759Z,4.00
2018-06-15T01:39:45.972Z,3.70
2018-06-15T01:42:14.170Z,3.83
2018-06-15T01:44:42.376Z,3.43
2018-06-15T01:47:10.576Z,3.30
2018-06-15T01:49:38.758Z,3.90
2018-06-15T01:52:06.982Z,4.03
2018-06-15T01:54:35.165Z,4.57
2018-06-15T01:57:03.362Z,4.60
2018-06-15T01:59:31.580Z,4.60
2018-06-15T02:01:59.759Z,3.67
2018-06-15T02:04:27.952Z,4.03
2018-06-15T02:06:56.155Z,4.23
2018-06-15T02:09:24.341Z,4.10
2018-06-15T02:11:52.590Z,3.93
2018-06-15T02:14:20.814Z,4.10
2018-06-15T02:16:48.754Z,4.70
2018-06-15T02:19:17.011Z,4.50
2018-06-15T02:21:45.206Z,3.70
2018-06-15T02:24:13.392Z,3.80
2018-06-15T02:26:41.607Z,4.13
2018-06-15T02:29:09.807Z,4.03
2018-06-15T02:31:37.990Z,3.90
2018-06-15T02:34:06.171Z,3.93
2018-06-15T02:36:34.379Z,4.30
2018-06-15T02:39:02.574Z,4.30
2018-06-15T02:41:30.772Z,5.50
2018-06-15T02:43:58.979Z,5.40
2018-06-15T02:46:27.170Z,5.77
2018-06-15T02:48:55.113Z,5.70
2018-06-15T02:51:23.338Z,5.80
2018-06-15T02:53:51.511Z,4.87
2018-06-15T02:56:19.726Z,5.07
2018-06-15T02:58:47.912Z,5.93
2018-06-15T03:01:16.122Z,4.70
2018-06-15T03:03:44.396Z,4.43
2018-06-15T03:06:12.626Z,5.67
2018-06-15T03:08:40.815Z,5.00
2018-06-15T03:11:08.986Z,5.60
2018-06-15T03:13:37.184Z,5.00
2018-06-15T03:16:05.159Z,4.40
2018-06-15T03:18:33.360Z,4.43
2018-06-15T03:21:01.613Z,4.07
2018-06-15T03:23:29.798Z,4.37
2018-06-15T03:25:57.987Z,4.53
2018-06-15T03:28:26.170Z,4.60
2018-06-15T03:30:54.361Z,3.93
2018-06-15T03:33:22.556Z,4.10
2018-06-15T03:35:50.752Z,4.30
2018-06-15T03:38:18.947Z,5.87
2018-06-15T03:40:47.136Z,4.80
2018-06-15T03:43:15.327Z,5.50
2018-06-15T03:45:43.514Z,4.50
2018-06-15T03:48:11.712Z,3.50
2018-06-15T03:50:39.641Z,4.03
2018-06-15T03:53:07.860Z,3.80
2018-06-15T03:55:36.056Z,3.37
2018-06-15T03:58:04.370Z,3.97
2018-06-15T04:00:32.548Z,4.03
2018-06-15T04:03:00.760Z,3.43
2018-06-15T04:05:28.950Z,3.73
2018-06-15T04:07:57.143Z,4.17
2018-06-15T04:10:25.315Z,4.03
2018-06-15T04:12:53.542Z,4.00
2018-06-15T04:15:21.723Z,3.83
2018-06-15T04:17:56.079Z,4.57
2018-06-15T04:20:24.268Z,4.63
2018-06-15T04:22:52.463Z,4.57
2018-06-15T04:25:20.641Z,4.40
2018-06-15T04:27:48.814Z,4.40
2018-06-15T04:30:17.004Z,4.40
2018-06-15T04:32:44.960Z,4.80
2018-06-15T04:35:13.146Z,4.40
2018-06-15T04:37:41.185Z,4.70
2018-06-15T04:40:09.374Z,4.70
2018-06-15T04:42:37.561Z,4.63
2018-06-15T04:45:05.765Z,4.87
2018-06-15T04:47:34.104Z,4.87
2018-06-15T04:50:02.351Z,4.40
2018-06-15T04:52:30.548Z,5.33
2018-06-15T04:54:58.715Z,4.73
2018-06-15T04:57:26.902Z,9.90
2018-06-15T04:59:55.089Z,8.07
2018-06-15T05:02:23.323Z,7.67
2018-06-15T05:04:51.719Z,7.87
2018-06-15T05:07:19.913Z,7.13
2018-06-15T05:09:48.100Z,7.50
2018-06-15T05:12:16.210Z,6.80
2018-06-15T05:14:44.400Z,7.50
2018-06-15T05:17:12.606Z,5.00
2018-06-15T05:19:40.907Z,5.73
2018-06-15T05:22:09.205Z,4.60
2018-06-15T05:24:37.560Z,4.87
2018-06-15T05:27:05.770Z,4.20
2018-06-15T05:29:33.972Z,4.43
2018-06-15T05:32:02.150Z,4.20
2018-06-15T05:34:30.334Z,4.50
2018-06-15T05:36:58.272Z,3.40
2018-06-15T05:39:26.468Z,3.30
2018-06-15T05:41:55.142Z,5.00
2018-06-15T05:44:23.301Z,4.03
2018-06-15T05:46:51.728Z,3.80
2018-06-15T05:49:20.175Z,3.50
2018-06-15T05:51:48.717Z,3.67
2018-06-15T05:54:17.192Z,3.90
2018-06-15T05:56:45.588Z,3.57
2018-06-15T05:59:14.061Z,3.87
2018-06-15T06:01:42.258Z,3.40
2018-06-15T06:04:10.460Z,4.33
2018-06-15T06:06:38.652Z,3.83
2018-06-15T06:09:07.970Z,3.80
2018-06-15T06:11:36.159Z,3.33
2018-06-15T06:14:04.368Z,3.70
2018-06-15T06:16:32.574Z,3.53
2018-06-15T06:19:00.765Z,4.10
2018-06-15T06:21:28.960Z,3.97
2018-06-15T06:23:57.396Z,3.50
2018-06-15T06:26:25.356Z,3.73
2018-06-15T06:28:53.557Z,3.97
2018-06-15T06:31:23.542Z,3.13
2018-06-15T06:33:52.028Z,3.00
2018-06-15T06:36:20.001Z,3.20
2018-06-15T06:38:48.200Z,3.60
2018-06-15T06:41:16.386Z,3.30
2018-06-15T06:43:44.578Z,3.40
2018-06-15T06:46:12.789Z,3.90
2018-06-15T06:48:41.012Z,3.30
2018-06-15T06:51:08.966Z,3.13
2018-06-15T06:53:37.171Z,2.77
2018-06-15T06:56:05.377Z,3.03
2018-06-15T06:58:33.622Z,3.23
2018-06-15T07:01:01.775Z,3.03
2018-06-15T07:03:29.968Z,3.23
2018-06-15T07:05:58.162Z,3.10
2018-06-15T07:08:26.364Z,3.17
2018-06-15T07:10:54.312Z,3.40
2018-06-15T07:13:22.505Z,2.97
2018-06-15T07:15:50.684Z,3.73
2018-06-15T07:18:18.890Z,3.10
2018-06-15T07:20:47.108Z,2.80
2018-06-15T07:23:15.337Z,2.73
2018-06-15T07:25:43.545Z,4.00
2018-06-15T07:28:11.754Z,3.00
2018-06-15T07:30:39.996Z,3.13
2018-06-15T07:33:08.208Z,3.30
2018-06-15T07:35:36.405Z,2.87
2018-06-15T07:38:04.736Z,2.90
2018-06-15T07:40:32.936Z,2.87
2018-06-15T07:43:01.115Z,2.30
2018-06-15T07:45:29.320Z,3.20
2018-06-15T07:47:57.535Z,2.70
2018-06-15T07:50:25.751Z,2.97
2018-06-15T07:52:53.971Z,2.87
2018-06-15T07:55:22.174Z,3.10
2018-06-15T07:57:50.126Z,2.80
2018-06-15T08:00:18.348Z,3.07
2018-06-15T08:02:46.545Z,2.60
2018-06-15T08:05:14.812Z,3.00
2018-06-15T08:07:43.030Z,2.97
2018-06-15T08:10:11.004Z,2.40
2018-06-15T08:12:39.216Z,3.27
2018-06-15T08:15:07.596Z,2.87
2018-06-15T08:17:35.812Z,2.87
2018-06-15T08:20:04.023Z,2.70
2018-06-15T08:22:32.232Z,2.30
2018-06-15T08:25:00.434Z,3.07
2018-06-15T08:27:28.639Z,2.77
2018-06-15T08:29:56.614Z,3.07
2018-06-15T08:32:24.803Z,2.70
2018-06-15T08:34:52.998Z,2.53
2018-06-15T08:37:21.207Z,3.20
2018-06-15T08:39:49.416Z,2.83
2018-06-15T08:42:17.633Z,2.57
2018-06-15T08:44:45.834Z,2.30
2018-06-15T08:47:13.815Z,3.00
2018-06-15T08:49:41.793Z,3.17
2018-06-15T08:52:09.992Z,2.50
2018-06-15T08:54:38.191Z,2.27
2018-06-15T08:57:06.432Z,2.80
2018-06-15T08:59:35.363Z,2.10
2018-06-15T09:02:03.933Z,2.53
2018-06-15T09:04:32.143Z,2.63
2018-06-15T09:07:00.360Z,2.60
2018-06-15T09:09:28.537Z,2.33
2018-06-15T09:11:56.724Z,2.80
2018-06-15T09:14:24.928Z,2.27
2018-06-15T09:16:53.152Z,2.40
2018-06-15T09:19:21.367Z,2.23
2018-06-15T09:21:49.564Z,1.90
2018-06-15T09:24:17.533Z,2.60
2018-06-15T09:26:45.736Z,1.90
2018-06-15T09:29:13.939Z,1.97
2018-06-15T09:31:42.164Z,2.47
2018-06-15T09:34:10.465Z,2.60
2018-06-15T09:36:38.652Z,2.70
2018-06-15T09:39:07.589Z,3.00
2018-06-15T09:41:35.788Z,2.87
2018-06-15T09:44:03.979Z,2.27
2018-06-15T09:46:32.205Z,2.53
2018-06-15T09:49:00.387Z,2.17
2018-06-15T09:51:28.586Z,2.57
2018-06-15T09:53:56.832Z,2.10
2018-06-15T09:56:25.016Z,2.20
2018-06-15T09:58:54.390Z,2.57
2018-06-15T10:01:22.660Z,2.37
2018-06-15T10:03:50.851Z,2.20
2018-06-15T10:06:19.072Z,2.67
2018-06-15T10:08:47.268Z,2.63
2018-06-15T10:11:16.263Z,2.13
2018-06-15T10:13:44.467Z,2.47
2018-06-15T10:16:12.671Z,2.47
2018-06-15T10:18:40.856Z,2.70
2018-06-15T10:21:09.055Z,2.30
2018-06-15T10:23:37.283Z,2.50
2018-06-15T10:26:05.509Z,2.17
2018-06-15T10:28:33.691Z,2.30
2018-06-15T10:31:01.932Z,2.30
2018-06-15T10:33:30.118Z,1.77
2018-06-15T10:35:58.310Z,2.20
2018-06-15T10:38:26.517Z,1.80
2018-06-15T10:40:54.691Z,2.23
2018-06-15T10:43:22.883Z,2.13
2018-06-15T10:45:50.831Z,2.23
2018-06-15T10:48:19.032Z,2.00
2018-06-15T10:50:47.253Z,2.23
2018-06-15T10:53:15.449Z,1.90
2018-06-15T10:55:43.668Z,2.77
2018-06-15T10:58:11.858Z,2.00
2018-06-15T11:00:40.056Z,2.20
2018-06-15T11:03:08.261Z,1.97
2018-06-15T11:05:36.468Z,1.90
2018-06-15T11:08:04.650Z,1.77
2018-06-15T11:10:32.880Z,2.10
2018-06-15T11:13:01.085Z,2.37
2018-06-15T11:15:29.289Z,1.77
2018-06-15T11:17:57.498Z,2.17
2018-06-15T11:20:25.694Z,2.00
2018-06-15T11:22:53.897Z,2.10
2018-06-15T11:25:22.102Z,1.90
2018-06-15T11:27:50.331Z,2.00
2018-06-15T11:30:18.534Z,1.97
2018-06-15T11:32:46.784Z,2.40
2018-06-15T11:35:14.996Z,2.10
2018-06-15T11:37:43.212Z,2.43
2018-06-15T11:40:11.153Z,2.40
2018-06-15T11:42:39.396Z,2.63
2018-06-15T11:45:07.619Z,2.30
2018-06-15T11:47:36.063Z,1.90
2018-06-15T11:50:04.314Z,1.97
2018-06-15T11:52:32.519Z,2.30
2018-06-15T11:55:00.728Z,1.80
2018-06-15T11:57:28.726Z,2.13
2018-06-15T11:59:56.865Z,2.13
2018-06-15T12:02:24.851Z,2.07
2018-06-15T12:04:53.079Z,2.13
2018-06-15T12:07:21.283Z,2.73
2018-06-15T12:09:49.502Z,2.20
2018-06-15T12:12:17.717Z,2.10
2018-06-15T12:14:45.903Z,2.27
2018-06-15T12:17:14.120Z,1.70
2018-06-15T12:19:42.305Z,2.27
2018-06-15T12:22:10.520Z,2.70
2018-06-15T12:24:38.748Z,2.07
2018-06-15T12:27:07.036Z,2.67
2018-06-15T12:29:35.255Z,2.33
2018-06-15T12:32:03.477Z,1.60
2018-06-15T12:34:31.681Z,2.00
2018-06-15T12:36:59.999Z,2.00
2018-06-15T12:39:28.195Z,2.10
2018-06-15T12:41:56.423Z,1.73
2018-06-15T12:44:24.624Z,2.73
2018-06-15T12:46:52.798Z,1.90
2018-06-15T12:49:20.990Z,1.70
2018-06-15T12:51:49.199Z,2.47
2018-06-15T12:54:17.399Z,1.90
2018-06-15T12:56:45.572Z,1.87
2018-06-15T12:59:13.820Z,2.20
2018-06-15T13:01:42.107Z,2.00
2018-06-15T13:04:10.455Z,1.90
2018-06-15T13:06:38.676Z,1.27
2018-06-15T13:09:07.820Z,2.30
2018-06-15T13:11:36.019Z,2.20
2018-06-15T13:14:04.243Z,2.40
2018-06-15T13:16:32.463Z,2.30
2018-06-15T13:19:00.688Z,2.53
2018-06-15T13:21:29.141Z,3.03
2018-06-15T13:23:57.617Z,2.80
2018-06-15T13:26:26.099Z,3.00
2018-06-15T13:28:54.562Z,2.33
2018-06-15T13:31:23.060Z,2.00
2018-06-15T13:33:51.242Z,2.60
2018-06-15T13:36:19.577Z,2.00
2018-06-15T13:38:48.005Z,1.90
2018-06-15T13:41:16.140Z,2.50
2018-06-15T13:43:44.477Z,1.90
2018-06-15T13:46:12.892Z,2.23
2018-06-15T13:48:41.155Z,1.97
2018-06-15T13:51:09.563Z,2.70
2018-06-15T13:53:37.944Z,2.03
2018-06-15T13:56:05.987Z,2.00
2018-06-15T13:58:34.341Z,2.33
2018-06-15T14:01:02.768Z,2.10
2018-06-15T14:03:31.073Z,2.20
2018-06-15T14:05:59.231Z,2.07
2018-06-15T14:08:27.652Z,2.20
2018-06-15T14:10:56.002Z,1.63
2018-06-15T14:13:24.042Z,2.20
2018-06-15T14:15:52.439Z,1.87
2018-06-15T14:18:20.790Z,2.20
2018-06-15T14:20:49.198Z,2.30
2018-06-15T14:23:17.264Z,2.20
2018-06-15T14:25:45.521Z,2.10
2018-06-15T14:28:13.798Z,2.27
2018-06-15T14:30:42.061Z,2.10
2018-06-15T14:33:10.267Z,2.27
2018-06-15T14:35:38.467Z,2.00
2018-06-15T14:38:06.410Z,2.47
2018-06-15T14:40:34.630Z,2.03
2018-06-15T14:43:02.832Z,2.20
2018-06-15T14:45:31.014Z,2.20
2018-06-15T14:47:59.268Z,1.90
2018-06-15T14:50:27.459Z,2.17
2018-06-15T14:52:55.757Z,2.10
2018-06-15T14:55:23.868Z,1.73
2018-06-15T14:57:52.075Z,2.00
2018-06-15T15:00:20.278Z,2.00
2018-06-15T15:02:48.468Z,2.10
2018-06-15T15:05:16.787Z,2.10
2018-06-15T15:07:44.982Z,2.20
2018-06-15T15:10:13.219Z,2.07
2018-06-15T15:12:41.435Z,2.10
2018-06-15T15:15:09.778Z,1.80
2018-06-15T15:17:37.967Z,2.50
2018-06-15T15:20:06.169Z,2.50
2018-06-15T15:22:34.458Z,2.23
2018-06-15T15:25:02.674Z,2.47
2018-06-15T15:27:30.896Z,2.13
2018-06-15T15:29:59.225Z,2.50
2018-06-15T15:32:27.414Z,2.60
2018-06-15T15:34:55.603Z,2.30
2018-06-15T15:37:23.817Z,2.50
2018-06-15T15:39:51.999Z,2.40
2018-06-15T15:42:20.662Z,2.87
2018-06-15T15:44:48.897Z,2.23
2018-06-15T15:47:17.142Z,2.53
2018-06-15T15:49:45.098Z,2.30
2018-06-15T15:52:13.035Z,2.83
2018-06-15T15:54:41.309Z,2.97
2018-06-15T15:57:10.583Z,2.40
2018-06-15T15:59:39.103Z,2.70
2018-06-15T16:02:07.304Z,2.93
2018-06-15T16:04:35.263Z,3.23
2018-06-15T16:07:03.189Z,3.00
2018-06-15T16:09:31.407Z,3.20
2018-06-15T16:11:59.353Z,3.20
2018-06-15T16:14:27.551Z,2.87
2018-06-15T16:16:55.525Z,3.50
2018-06-15T16:19:23.733Z,3.07
2018-06-15T16:21:51.946Z,3.37
2018-06-15T16:24:20.138Z,3.33
2018-06-15T16:26:48.073Z,3.73
2018-06-15T16:29:16.270Z,3.90
2018-06-15T16:31:44.834Z,3.00
2018-06-15T16:34:13.289Z,2.83
2018-06-15T16:36:42.659Z,3.07
2018-06-15T16:39:11.181Z,3.27
2018-06-15T16:41:39.436Z,3.50
2018-06-15T16:44:07.632Z,3.70
2018-06-15T16:46:35.834Z,3.47
2018-06-15T16:49:04.059Z,4.17
2018-06-15T16:51:32.257Z,3.30
2018-06-15T16:54:00.469Z,3.30
2018-06-15T16:56:28.412Z,3.70
2018-06-15T16:58:56.611Z,3.20
2018-06-15T17:01:24.793Z,3.67
2018-06-15T17:03:52.988Z,3.53
2018-06-15T17:06:21.338Z,3.17
2018-06-15T17:08:49.363Z,3.40
2018-06-15T17:11:17.643Z,3.27
2018-06-15T17:13:45.848Z,3.50
2018-06-15T17:16:14.136Z,3.50
2018-06-15T17:18:43.324Z,3.50
2018-06-15T17:21:12.136Z,3.13
2018-06-15T17:23:40.929Z,3.67
2018-06-15T17:26:09.222Z,3.57
2018-06-15T17:28:37.585Z,3.80
2018-06-15T17:31:06.404Z,3.53
2018-06-15T17:33:34.803Z,3.23
2018-06-15T17:36:03.079Z,3.43
2018-06-15T17:38:31.267Z,3.27
2018-06-15T17:40:59.462Z,3.83
2018-06-15T17:43:27.998Z,3.73
2018-06-15T17:45:56.206Z,2.90
2018-06-15T17:48:24.395Z,3.50
2018-06-15T17:50:52.589Z,3.60
2018-06-15T17:53:20.787Z,3.20
2018-06-15T17:55:48.974Z,3.10
2018-06-15T17:58:17.196Z,3.60
2018-06-15T18:00:45.401Z,3.57
2018-06-15T18:03:13.641Z,3.47
2018-06-15T18:05:41.892Z,4.10
2018-06-15T18:08:10.078Z,3.40
2018-06-15T18:10:38.590Z,4.07
2018-06-15T18:13:06.536Z,3.93
2018-06-15T18:15:34.469Z,3.90
2018-06-15T18:18:02.745Z,3.57
2018-06-15T18:20:30.962Z,3.60
2018-06-15T18:22:59.155Z,4.60
2018-06-15T18:25:27.332Z,4.20
2018-06-15T18:27:55.878Z,4.10
2018-06-15T18:30:24.070Z,3.90
2018-06-15T18:32:52.299Z,3.63
2018-06-15T18:35:20.744Z,4.63
2018-06-15T18:37:48.928Z,4.10
2018-06-15T18:40:17.114Z,3.73
2018-06-15T18:42:46.301Z,3.40
2018-06-15T18:45:14.500Z,4.80
2018-06-15T18:47:42.695Z,3.70
2018-06-15T18:50:10.884Z,4.00
2018-06-15T18:52:39.200Z,3.93
2018-06-15T18:55:08.138Z,3.73
2018-06-15T18:57:36.327Z,4.57
2018-06-15T19:00:04.623Z,4.00
2018-06-15T19:02:32.794Z,4.00
2018-06-15T19:05:00.982Z,3.90
2018-06-15T19:07:29.242Z,3.50
2018-06-15T19:09:57.435Z,3.93
2018-06-15T19:12:25.626Z,4.00
2018-06-15T19:14:53.816Z,4.23
2018-06-15T19:17:22.016Z,4.87
2018-06-15T19:19:49.983Z,3.70
2018-06-15T19:22:18.595Z,4.53
2018-06-15T19:24:46.838Z,4.53
2018-06-15T19:27:14.778Z,4.03
2018-06-15T19:29:42.972Z,4.40
2018-06-15T19:32:10.919Z,3.80
2018-06-15T19:34:39.162Z,4.30
2018-06-15T19:37:07.328Z,4.40
2018-06-15T19:39:35.560Z,4.60
2018-06-15T19:42:03.750Z,5.10
2018-06-15T19:44:31.947Z,4.97
2018-06-15T19:47:00.135Z,3.73
2018-06-15T19:49:28.326Z,4.60
2018-06-15T19:51:56.526Z,4.87
2018-06-15T19:54:24.975Z,5.27
2018-06-15T19:56:53.372Z,4.90
2018-06-15T19:59:21.694Z,5.70
2018-06-15T20:01:49.907Z,5.17
2018-06-15T20:04:18.091Z,5.60
2018-06-15T20:06:46.307Z,7.30
2018-06-15T20:09:14.504Z,5.63
2018-06-15T20:11:42.702Z,6.17
2018-06-15T20:14:10.989Z,6.77
2018-06-15T20:16:39.179Z,6.47
2018-06-15T20:19:07.413Z,5.80
2018-06-15T20:21:35.558Z,6.63
2018-06-15T20:24:03.767Z,6.90
2018-06-15T20:26:31.945Z,6.10
2018-06-15T20:29:00.145Z,7.47
2018-06-15T20:31:28.340Z,10.97
2018-06-15T20:33:56.380Z,7.00
2018-06-15T20:36:24.659Z,7.27
2018-06-15T20:38:52.803Z,7.37
2018-06-15T20:41:21.077Z,7.47
2018-06-15T20:43:49.283Z,7.37
2018-06-15T20:46:17.468Z,7.00
2018-06-15T20:48:45.687Z,8.30
2018-06-15T20:51:13.893Z,7.87
2018-06-15T20:53:42.095Z,9.43
2018-06-15T20:56:10.312Z,9.17
2018-06-15T20:58:38.514Z,8.00
2018-06-15T21:01:07.484Z,7.20
2018-06-15T21:03:35.951Z,7.37
2018-06-15T21:06:04.801Z,7.67
2018-06-15T21:08:33.301Z,6.83
2018-06-15T21:11:01.903Z,7.10
2018-06-15T21:13:30.089Z,7.67
2018-06-15T21:15:58.327Z,7.70
2018-06-15T21:18:26.272Z,8.37
2018-06-15T21:20:54.482Z,9.60
2018-06-15T21:23:22.713Z,7.13
2018-06-15T21:25:50.912Z,7.87
2018-06-15T21:28:19.094Z,7.30
2018-06-15T21:30:47.064Z,7.20
2018-06-15T21:33:15.262Z,7.73
2018-06-15T21:35:43.499Z,8.33
2018-06-15T21:38:11.697Z,7.97
2018-06-15T21:40:40.000Z,7.53
2018-06-15T21:43:08.212Z,7.83
2018-06-15T21:45:37.515Z,8.20
2018-06-15T21:48:05.757Z,8.03
2018-06-15T21:50:33.958Z,9.20
2018-06-15T21:53:02.498Z,7.60
2018-06-15T21:55:30.738Z,7.97
2018-06-15T21:57:58.703Z,6.77
2018-06-15T22:00:27.768Z,7.17
2018-06-15T22:02:56.070Z,8.93
2018-06-15T22:05:24.258Z,7.87
2018-06-15T22:07:52.279Z,8.03
2018-06-15T22:10:20.951Z,9.20
2018-06-15T22:15:55.726Z,9.03
2018-06-15T22:18:38.386Z,9.50
2018-06-15T23:35:37.217Z,8.50
2018-06-15T23:38:05.429Z,8.67
2018-06-15T23:40:33.624Z,8.80
2018-06-15T23:43:01.791Z,8.23
2018-06-15T23:45:29.998Z,9.77
2018-06-15T23:47:58.178Z,8.63
2018-06-15T23:50:26.375Z,9.17
2018-06-15T23:52:54.571Z,10.47
2018-06-15T23:55:22.756Z,9.63
2018-06-15T23:57:51.109Z,9.50
